sensor_id;sensor_type;location;lat;lon;timestamp;pressure;altitude;pressure_sealevel;temperature;humidity
12594;BME280;6362;50.208;9.182;2023-12-07T00:02:06;100195.38;;;0.25;100.00
12594;BME280;6362;50.208;9.182;2023-12-07T00:04:32;100193.66;;;0.24;100.00
12594;BME280;6362;50.208;9.182;2023-12-07T00:06:57;100191.91;;;0.23;100.00
12594;BME280;6362;50.208;9.182;2023-12-07T00:09:22;100197.06;;;0.25;100.00
12594;BME280;6362;50.208;9.182;2023-12-07T00:11:48;100193.47;;;0.20;100.00
12594;BME280;6362;50.208;9.182;2023-12-07T00:14:13;100193.44;;;0.18;100.00
12594;BME280;6362;50.208;9.182;2023-12-07T00:16:39;100187.34;;;0.16;100.00
12594;BME280;6362;50.208;9.182;2023-12-07T00:19:05;100200.16;;;0.16;100.00
12594;BME280;6362;50.208;9.182;2023-12-07T00:21:30;100203.66;;;0.18;100.00
12594;BME280;6362;50.208;9.182;2023-12-07T00:23:56;100202.66;;;0.15;100.00
12594;BME280;6362;50.208;9.182;2023-12-07T00:26:21;100212.06;;;0.16;100.00
12594;BME280;6362;50.208;9.182;2023-12-07T00:28:46;100209.63;;;0.19;100.00
12594;BME280;6362;50.208;9.182;2023-12-07T00:31:12;100213.09;;;0.21;100.00
12594;BME280;6362;50.208;9.182;2023-12-07T00:33:38;100210.63;;;0.22;100.00
12594;BME280;6362;50.208;9.182;2023-12-07T00:36:03;100211.56;;;0.24;100.00
12594;BME280;6362;50.208;9.182;2023-12-07T00:38:29;100220.28;;;0.30;100.00
12594;BME280;6362;50.208;9.182;2023-12-07T00:40:54;100216.84;;;0.29;100.00
12594;BME280;6362;50.208;9.182;2023-12-07T00:43:20;100216.91;;;0.31;100.00
12594;BME280;6362;50.208;9.182;2023-12-07T00:45:45;100214.41;;;0.32;100.00
12594;BME280;6362;50.208;9.182;2023-12-07T00:48:11;100225.50;;;0.33;100.00
12594;BME280;6362;50.208;9.182;2023-12-07T00:50:36;100226.38;;;0.33;100.00
12594;BME280;6362;50.208;9.182;2023-12-07T00:53:01;100226.44;;;0.35;100.00
12594;BME280;6362;50.208;9.182;2023-12-07T00:55:27;100231.47;;;0.33;100.00
12594;BME280;6362;50.208;9.182;2023-12-07T00:57:53;100248.41;;;0.30;100.00
12594;BME280;6362;50.208;9.182;2023-12-07T01:00:18;100240.75;;;0.30;100.00
12594;BME280;6362;50.208;9.182;2023-12-07T01:02:44;100239.00;;;0.29;100.00
12594;BME280;6362;50.208;9.182;2023-12-07T01:05:09;100238.06;;;0.26;100.00
12594;BME280;6362;50.208;9.182;2023-12-07T01:07:35;100239.63;;;0.23;100.00
12594;BME280;6362;50.208;9.182;2023-12-07T01:10:00;100237.09;;;0.23;100.00
12594;BME280;6362;50.208;9.182;2023-12-07T01:12:26;100240.28;;;0.17;100.00
12594;BME280;6362;50.208;9.182;2023-12-07T01:14:51;100241.78;;;0.12;100.00
12594;BME280;6362;50.208;9.182;2023-12-07T01:17:17;100247.56;;;0.08;100.00
12594;BME280;6362;50.208;9.182;2023-12-07T01:19:43;100249.13;;;0.05;100.00
12594;BME280;6362;50.208;9.182;2023-12-07T01:22:08;100249.84;;;0.01;100.00
12594;BME280;6362;50.208;9.182;2023-12-07T01:24:34;100242.91;;;-0.02;100.00
12594;BME280;6362;50.208;9.182;2023-12-07T01:26:59;100246.22;;;-0.05;100.00
12594;BME280;6362;50.208;9.182;2023-12-07T01:29:24;100247.63;;;-0.11;100.00
12594;BME280;6362;50.208;9.182;2023-12-07T01:31:50;100255.16;;;-0.16;100.00
12594;BME280;6362;50.208;9.182;2023-12-07T01:34:17;100250.81;;;-0.17;100.00
12594;BME280;6362;50.208;9.182;2023-12-07T01:36:43;100247.25;;;-0.22;100.00
12594;BME280;6362;50.208;9.182;2023-12-07T01:39:09;100251.34;;;-0.25;100.00
12594;BME280;6362;50.208;9.182;2023-12-07T01:41:38;100252.84;;;-0.31;100.00
12594;BME280;6362;50.208;9.182;2023-12-07T01:44:04;100256.16;;;-0.33;100.00
12594;BME280;6362;50.208;9.182;2023-12-07T01:46:30;100258.41;;;-0.39;100.00
12594;BME280;6362;50.208;9.182;2023-12-07T01:48:55;100259.03;;;-0.45;100.00
12594;BME280;6362;50.208;9.182;2023-12-07T01:51:21;100258.94;;;-0.48;100.00
12594;BME280;6362;50.208;9.182;2023-12-07T01:53:47;100267.41;;;-0.49;100.00
12594;BME280;6362;50.208;9.182;2023-12-07T01:56:13;100266.59;;;-0.48;100.00
12594;BME280;6362;50.208;9.182;2023-12-07T01:58:39;100265.66;;;-0.50;100.00
12594;BME280;6362;50.208;9.182;2023-12-07T02:01:05;100272.38;;;-0.52;100.00
12594;BME280;6362;50.208;9.182;2023-12-07T02:03:31;100284.22;;;-0.54;100.00
12594;BME280;6362;50.208;9.182;2023-12-07T02:05:57;100277.38;;;-0.55;100.00
12594;BME280;6362;50.208;9.182;2023-12-07T02:08:23;100277.22;;;-0.58;100.00
12594;BME280;6362;50.208;9.182;2023-12-07T02:10:49;100280.09;;;-0.50;100.00
12594;BME280;6362;50.208;9.182;2023-12-07T02:13:14;100277.75;;;-0.46;100.00
12594;BME280;6362;50.208;9.182;2023-12-07T02:15:40;100280.44;;;-0.43;100.00
12594;BME280;6362;50.208;9.182;2023-12-07T02:18:15;100281.50;;;-0.38;100.00
12594;BME280;6362;50.208;9.182;2023-12-07T02:20:47;100286.81;;;-0.33;100.00
12594;BME280;6362;50.208;9.182;2023-12-07T02:23:18;100287.94;;;-0.27;100.00
12594;BME280;6362;50.208;9.182;2023-12-07T02:29:19;100289.16;;;-0.17;100.00
12594;BME280;6362;50.208;9.182;2023-12-07T02:31:45;100297.03;;;-0.12;100.00
12594;BME280;6362;50.208;9.182;2023-12-07T02:34:10;100292.09;;;-0.08;100.00
12594;BME280;6362;50.208;9.182;2023-12-07T02:36:38;100296.59;;;-0.02;100.00
12594;BME280;6362;50.208;9.182;2023-12-07T02:39:05;100289.06;;;0.01;100.00
12594;BME280;6362;50.208;9.182;2023-12-07T02:41:32;100290.91;;;0.05;100.00
12594;BME280;6362;50.208;9.182;2023-12-07T02:43:58;100290.28;;;0.11;100.00
12594;BME280;6362;50.208;9.182;2023-12-07T02:46:25;100292.22;;;0.16;100.00
12594;BME280;6362;50.208;9.182;2023-12-07T02:48:51;100284.72;;;0.21;100.00
12594;BME280;6362;50.208;9.182;2023-12-07T02:51:16;100281.53;;;0.26;100.00
12594;BME280;6362;50.208;9.182;2023-12-07T02:53:42;100286.84;;;0.31;100.00
12594;BME280;6362;50.208;9.182;2023-12-07T02:56:07;100281.91;;;0.36;100.00
12594;BME280;6362;50.208;9.182;2023-12-07T02:58:33;100282.00;;;0.39;100.00
12594;BME280;6362;50.208;9.182;2023-12-07T03:00:58;100289.84;;;0.43;100.00
12594;BME280;6362;50.208;9.182;2023-12-07T03:03:25;100289.03;;;0.44;100.00
12594;BME280;6362;50.208;9.182;2023-12-07T03:05:51;100289.13;;;0.68;100.00
12594;BME280;6362;50.208;9.182;2023-12-07T03:08:16;100280.41;;;0.63;100.00
12594;BME280;6362;50.208;9.182;2023-12-07T03:10:42;100279.13;;;0.52;100.00
12594;BME280;6362;50.208;9.182;2023-12-07T03:13:07;100276.38;;;0.47;100.00
12594;BME280;6362;50.208;9.182;2023-12-07T03:15:33;100287.25;;;0.42;100.00
12594;BME280;6362;50.208;9.182;2023-12-07T03:17:58;100277.06;;;0.43;100.00
12594;BME280;6362;50.208;9.182;2023-12-07T03:20:23;100279.56;;;0.42;100.00
12594;BME280;6362;50.208;9.182;2023-12-07T03:22:49;100281.28;;;0.41;100.00
12594;BME280;6362;50.208;9.182;2023-12-07T03:25:14;100286.00;;;0.32;100.00
12594;BME280;6362;50.208;9.182;2023-12-07T03:27:40;100287.50;;;0.27;100.00
12594;BME280;6362;50.208;9.182;2023-12-07T03:30:06;100286.47;;;0.22;100.00
12594;BME280;6362;50.208;9.182;2023-12-07T03:32:32;100287.09;;;0.16;100.00
12594;BME280;6362;50.208;9.182;2023-12-07T03:34:57;100288.09;;;-0.01;100.00
12594;BME280;6362;50.208;9.182;2023-12-07T03:37:23;100286.31;;;-0.04;100.00
12594;BME280;6362;50.208;9.182;2023-12-07T03:39:48;100290.47;;;-0.06;100.00
12594;BME280;6362;50.208;9.182;2023-12-07T03:42:13;100292.88;;;-0.10;100.00
12594;BME280;6362;50.208;9.182;2023-12-07T03:44:39;100290.06;;;-0.16;100.00
12594;BME280;6362;50.208;9.182;2023-12-07T03:47:04;100297.44;;;-0.22;100.00
12594;BME280;6362;50.208;9.182;2023-12-07T03:49:30;100296.31;;;-0.29;100.00
12594;BME280;6362;50.208;9.182;2023-12-07T03:51:56;100295.22;;;-0.36;100.00
12594;BME280;6362;50.208;9.182;2023-12-07T03:54:21;100294.94;;;-0.42;100.00
12594;BME280;6362;50.208;9.182;2023-12-07T03:56:47;100298.13;;;-0.47;100.00
12594;BME280;6362;50.208;9.182;2023-12-07T03:59:12;100295.38;;;-0.52;100.00
12594;BME280;6362;50.208;9.182;2023-12-07T04:01:38;100304.31;;;-0.62;100.00
12594;BME280;6362;50.208;9.182;2023-12-07T04:04:03;100304.19;;;-0.65;100.00
12594;BME280;6362;50.208;9.182;2023-12-07T04:06:30;100302.19;;;-0.72;100.00
12594;BME280;6362;50.208;9.182;2023-12-07T04:08:56;100303.72;;;-0.75;100.00
12594;BME280;6362;50.208;9.182;2023-12-07T04:11:21;100302.81;;;-0.77;100.00
12594;BME280;6362;50.208;9.182;2023-12-07T04:13:48;100303.47;;;-0.82;100.00
12594;BME280;6362;50.208;9.182;2023-12-07T04:16:14;100315.16;;;-0.87;100.00
12594;BME280;6362;50.208;9.182;2023-12-07T04:18:39;100328.13;;;-0.82;100.00
12594;BME280;6362;50.208;9.182;2023-12-07T04:21:05;100328.59;;;-0.71;100.00
12594;BME280;6362;50.208;9.182;2023-12-07T04:23:31;100332.53;;;-0.78;100.00
12594;BME280;6362;50.208;9.182;2023-12-07T04:25:56;100320.97;;;-0.89;100.00
12594;BME280;6362;50.208;9.182;2023-12-07T04:28:22;100321.53;;;-0.96;100.00
12594;BME280;6362;50.208;9.182;2023-12-07T04:30:47;100326.50;;;-0.99;100.00
12594;BME280;6362;50.208;9.182;2023-12-07T04:33:13;100323.75;;;-1.04;100.00
12594;BME280;6362;50.208;9.182;2023-12-07T04:35:38;100321.19;;;-1.04;100.00
12594;BME280;6362;50.208;9.182;2023-12-07T04:38:04;100321.19;;;-1.04;100.00
12594;BME280;6362;50.208;9.182;2023-12-07T04:40:29;100317.66;;;-1.06;100.00
12594;BME280;6362;50.208;9.182;2023-12-07T04:42:55;100314.25;;;-1.07;100.00
12594;BME280;6362;50.208;9.182;2023-12-07T04:45:20;100325.63;;;-0.81;100.00
12594;BME280;6362;50.208;9.182;2023-12-07T04:47:46;100313.53;;;-0.85;100.00
12594;BME280;6362;50.208;9.182;2023-12-07T04:50:12;100312.44;;;-0.90;100.00
12594;BME280;6362;50.208;9.182;2023-12-07T04:52:37;100316.19;;;-1.01;100.00
12594;BME280;6362;50.208;9.182;2023-12-07T04:55:04;100309.03;;;-1.10;100.00
12594;BME280;6362;50.208;9.182;2023-12-07T04:57:32;100314.84;;;-1.12;100.00
12594;BME280;6362;50.208;9.182;2023-12-07T04:59:57;100304.38;;;-1.18;100.00
12594;BME280;6362;50.208;9.182;2023-12-07T05:02:22;100314.63;;;-1.17;100.00
12594;BME280;6362;50.208;9.182;2023-12-07T05:04:48;100307.50;;;-1.24;100.00
12594;BME280;6362;50.208;9.182;2023-12-07T05:07:14;100318.53;;;-1.25;100.00
12594;BME280;6362;50.208;9.182;2023-12-07T05:09:39;100318.38;;;-1.28;100.00
12594;BME280;6362;50.208;9.182;2023-12-07T05:12:06;100320.81;;;-1.31;100.00
12594;BME280;6362;50.208;9.182;2023-12-07T05:14:32;100318.97;;;-1.34;100.00
12594;BME280;6362;50.208;9.182;2023-12-07T05:16:57;100317.91;;;-1.39;100.00
12594;BME280;6362;50.208;9.182;2023-12-07T05:19:23;100331.31;;;-1.43;100.00
12594;BME280;6362;50.208;9.182;2023-12-07T05:21:49;100331.63;;;-1.54;100.00
12594;BME280;6362;50.208;9.182;2023-12-07T05:24:15;100337.09;;;-1.65;100.00
12594;BME280;6362;50.208;9.182;2023-12-07T05:26:42;100338.81;;;-1.64;100.00
12594;BME280;6362;50.208;9.182;2023-12-07T05:29:08;100337.03;;;-1.66;100.00
12594;BME280;6362;50.208;9.182;2023-12-07T05:31:33;100338.75;;;-1.65;100.00
12594;BME280;6362;50.208;9.182;2023-12-07T05:33:59;100343.75;;;-1.67;100.00
12594;BME280;6362;50.208;9.182;2023-12-07T05:36:24;100341.22;;;-1.67;100.00
12594;BME280;6362;50.208;9.182;2023-12-07T05:38:51;100338.75;;;-1.65;100.00
12594;BME280;6362;50.208;9.182;2023-12-07T05:41:16;100343.88;;;-1.65;100.00
12594;BME280;6362;50.208;9.182;2023-12-07T05:43:42;100343.06;;;-1.64;100.00
12594;BME280;6362;50.208;9.182;2023-12-07T05:46:08;100346.47;;;-1.64;100.00
12594;BME280;6362;50.208;9.182;2023-12-07T05:48:33;100343.91;;;-1.46;100.00
12594;BME280;6362;50.208;9.182;2023-12-07T05:50:59;100346.88;;;-1.19;100.00
12594;BME280;6362;50.208;9.182;2023-12-07T05:53:24;100360.06;;;-1.10;100.00
12594;BME280;6362;50.208;9.182;2023-12-07T05:55:50;100354.22;;;-1.07;100.00
12594;BME280;6362;50.208;9.182;2023-12-07T05:58:16;100362.94;;;-1.21;100.00
12594;BME280;6362;50.208;9.182;2023-12-07T06:00:43;100358.13;;;-1.33;100.00
12594;BME280;6362;50.208;9.182;2023-12-07T06:03:09;100363.09;;;-1.36;100.00
12594;BME280;6362;50.208;9.182;2023-12-07T06:05:37;100358.91;;;-1.34;100.00
12594;BME280;6362;50.208;9.182;2023-12-07T06:08:03;100365.91;;;-1.30;100.00
12594;BME280;6362;50.208;9.182;2023-12-07T06:10:29;100370.44;;;-1.24;100.00
12594;BME280;6362;50.208;9.182;2023-12-07T06:12:55;100364.47;;;-1.25;100.00
12594;BME280;6362;50.208;9.182;2023-12-07T06:15:22;100363.59;;;-1.25;100.00
12594;BME280;6362;50.208;9.182;2023-12-07T06:17:48;100365.38;;;-1.23;100.00
12594;BME280;6362;50.208;9.182;2023-12-07T06:20:13;100361.31;;;-1.19;100.00
12594;BME280;6362;50.208;9.182;2023-12-07T06:22:38;100370.88;;;-1.15;100.00
12594;BME280;6362;50.208;9.182;2023-12-07T06:25:04;100361.59;;;-1.13;100.00
12594;BME280;6362;50.208;9.182;2023-12-07T06:27:30;100363.84;;;-1.01;100.00
12594;BME280;6362;50.208;9.182;2023-12-07T06:29:56;100374.09;;;-0.82;100.00
12594;BME280;6362;50.208;9.182;2023-12-07T06:32:21;100373.47;;;-0.76;100.00
12594;BME280;6362;50.208;9.182;2023-12-07T06:34:46;100381.16;;;-0.76;100.00
12594;BME280;6362;50.208;9.182;2023-12-07T06:37:12;100373.88;;;-0.87;100.00
12594;BME280;6362;50.208;9.182;2023-12-07T06:39:38;100373.66;;;-0.91;100.00
12594;BME280;6362;50.208;9.182;2023-12-07T06:42:04;100379.56;;;-0.92;100.00
12594;BME280;6362;50.208;9.182;2023-12-07T06:44:29;100374.53;;;-0.91;100.00
12594;BME280;6362;50.208;9.182;2023-12-07T06:46:55;100371.25;;;-0.88;100.00
12594;BME280;6362;50.208;9.182;2023-12-07T06:49:20;100368.97;;;-0.82;100.00
12594;BME280;6362;50.208;9.182;2023-12-07T06:51:45;100378.66;;;-0.75;100.00
12594;BME280;6362;50.208;9.182;2023-12-07T06:54:11;100381.53;;;-0.67;100.00
12594;BME280;6362;50.208;9.182;2023-12-07T06:56:36;100386.84;;;-0.63;100.00
12594;BME280;6362;50.208;9.182;2023-12-07T06:59:02;100383.69;;;-0.57;100.00
12594;BME280;6362;50.208;9.182;2023-12-07T07:01:27;100385.66;;;-0.51;100.00
12594;BME280;6362;50.208;9.182;2023-12-07T07:03:53;100384.84;;;-0.50;100.00
12594;BME280;6362;50.208;9.182;2023-12-07T07:06:18;100390.91;;;-0.48;100.00
12594;BME280;6362;50.208;9.182;2023-12-07T07:08:44;100387.47;;;-0.49;100.00
12594;BME280;6362;50.208;9.182;2023-12-07T07:11:12;100387.59;;;-0.46;100.00
12594;BME280;6362;50.208;9.182;2023-12-07T07:13:38;100388.56;;;-0.44;100.00
12594;BME280;6362;50.208;9.182;2023-12-07T07:16:04;100389.53;;;-0.40;100.00
12594;BME280;6362;50.208;9.182;2023-12-07T07:18:29;100392.19;;;-0.39;100.00
12594;BME280;6362;50.208;9.182;2023-12-07T07:20:55;100396.47;;;-0.38;100.00
12594;BME280;6362;50.208;9.182;2023-12-07T07:23:20;100394.00;;;-0.36;100.00
12594;BME280;6362;50.208;9.182;2023-12-07T07:25:46;100394.03;;;-0.35;100.00
12594;BME280;6362;50.208;9.182;2023-12-07T07:28:11;100391.56;;;-0.33;100.00
12594;BME280;6362;50.208;9.182;2023-12-07T07:30:37;100398.44;;;-0.32;100.00
12594;BME280;6362;50.208;9.182;2023-12-07T07:33:03;100401.09;;;-0.29;100.00
12594;BME280;6362;50.208;9.182;2023-12-07T07:35:29;100403.53;;;-0.32;100.00
12594;BME280;6362;50.208;9.182;2023-12-07T07:37:55;100407.91;;;-0.30;100.00
12594;BME280;6362;50.208;9.182;2023-12-07T07:40:20;100402.13;;;-0.25;100.00
12594;BME280;6362;50.208;9.182;2023-12-07T07:42:46;100406.56;;;-0.21;100.00
12594;BME280;6362;50.208;9.182;2023-12-07T07:45:11;100414.34;;;-0.18;100.00
12594;BME280;6362;50.208;9.182;2023-12-07T07:47:37;100414.50;;;-0.15;100.00
12594;BME280;6362;50.208;9.182;2023-12-07T07:50:02;100418.19;;;-0.09;100.00
12594;BME280;6362;50.208;9.182;2023-12-07T07:52:34;100424.41;;;-0.02;100.00
12594;BME280;6362;50.208;9.182;2023-12-07T07:55:02;100420.63;;;0.09;100.00
12594;BME280;6362;50.208;9.182;2023-12-07T07:57:29;100420.00;;;0.34;100.00
12594;BME280;6362;50.208;9.182;2023-12-07T07:59:54;100417.97;;;0.69;100.00
12594;BME280;6362;50.208;9.182;2023-12-07T08:02:20;100415.06;;;0.82;100.00
12594;BME280;6362;50.208;9.182;2023-12-07T08:04:47;100420.50;;;0.90;100.00
12594;BME280;6362;50.208;9.182;2023-12-07T08:07:12;100415.72;;;0.99;100.00
12594;BME280;6362;50.208;9.182;2023-12-07T08:09:38;100417.78;;;1.08;100.00
12594;BME280;6362;50.208;9.182;2023-12-07T08:12:03;100418.78;;;1.11;100.00
12594;BME280;6362;50.208;9.182;2023-12-07T08:14:30;100418.19;;;1.18;100.00
12594;BME280;6362;50.208;9.182;2023-12-07T08:16:55;100424.19;;;1.19;100.00
12594;BME280;6362;50.208;9.182;2023-12-07T08:19:21;100418.38;;;1.23;100.00
12594;BME280;6362;50.208;9.182;2023-12-07T08:21:46;100415.56;;;1.17;100.00
12594;BME280;6362;50.208;9.182;2023-12-07T08:24:12;100411.59;;;1.02;100.00
12594;BME280;6362;50.208;9.182;2023-12-07T08:26:38;100413.69;;;0.90;100.00
12594;BME280;6362;50.208;9.182;2023-12-07T08:29:04;100414.25;;;0.83;100.00
12594;BME280;6362;50.208;9.182;2023-12-07T08:31:30;100402.72;;;0.72;100.00
12594;BME280;6362;50.208;9.182;2023-12-07T08:33:56;100401.78;;;0.70;100.00
12594;BME280;6362;50.208;9.182;2023-12-07T08:36:21;100398.22;;;0.66;100.00
12594;BME280;6362;50.208;9.182;2023-12-07T08:38:47;100393.38;;;0.72;100.00
12594;BME280;6362;50.208;9.182;2023-12-07T08:41:12;100392.22;;;0.87;100.00
12594;BME280;6362;50.208;9.182;2023-12-07T08:43:38;100385.06;;;1.00;100.00
12594;BME280;6362;50.208;9.182;2023-12-07T08:46:03;100385.75;;;1.19;100.00
12594;BME280;6362;50.208;9.182;2023-12-07T08:48:30;100384.81;;;1.39;100.00
12594;BME280;6362;50.208;9.182;2023-12-07T08:50:55;100378.69;;;1.59;100.00
12594;BME280;6362;50.208;9.182;2023-12-07T08:53:20;100373.56;;;1.83;100.00
12594;BME280;6362;50.208;9.182;2023-12-07T08:55:46;100369.94;;;2.02;100.00
12594;BME280;6362;50.208;9.182;2023-12-07T08:58:12;100375.00;;;2.26;100.00
12594;BME280;6362;50.208;9.182;2023-12-07T09:00:38;100368.81;;;2.47;100.00
12594;BME280;6362;50.208;9.182;2023-12-07T09:03:03;100374.34;;;2.59;100.00
12594;BME280;6362;50.208;9.182;2023-12-07T09:05:29;100372.41;;;2.79;100.00
12594;BME280;6362;50.208;9.182;2023-12-07T09:07:55;100375.88;;;2.81;100.00
12594;BME280;6362;50.208;9.182;2023-12-07T09:10:22;100366.66;;;2.87;100.00
12594;BME280;6362;50.208;9.182;2023-12-07T09:12:48;100365.13;;;2.94;100.00
12594;BME280;6362;50.208;9.182;2023-12-07T09:15:13;100353.13;;;2.93;100.00
12594;BME280;6362;50.208;9.182;2023-12-07T09:17:39;100361.19;;;3.05;100.00
12594;BME280;6362;50.208;9.182;2023-12-07T09:20:09;100362.69;;;3.27;100.00
12594;BME280;6362;50.208;9.182;2023-12-07T09:22:43;100358.44;;;3.28;100.00
12594;BME280;6362;50.208;9.182;2023-12-07T09:25:09;100356.56;;;3.22;100.00
12594;BME280;6362;50.208;9.182;2023-12-07T09:27:36;100364.47;;;3.28;100.00
12594;BME280;6362;50.208;9.182;2023-12-07T09:30:07;100357.81;;;3.36;100.00
12594;BME280;6362;50.208;9.182;2023-12-07T09:32:37;100352.69;;;3.36;100.00
12594;BME280;6362;50.208;9.182;2023-12-07T09:35:04;100363.59;;;3.28;100.00
12594;BME280;6362;50.208;9.182;2023-12-07T09:37:32;100369.78;;;3.34;100.00
12594;BME280;6362;50.208;9.182;2023-12-07T09:39:58;100369.41;;;3.52;100.00
12594;BME280;6362;50.208;9.182;2023-12-07T09:42:23;100364.38;;;3.88;100.00
12594;BME280;6362;50.208;9.182;2023-12-07T09:44:49;100370.66;;;4.67;100.00
12594;BME280;6362;50.208;9.182;2023-12-07T09:47:15;100360.94;;;5.79;94.27
12594;BME280;6362;50.208;9.182;2023-12-07T09:49:41;100358.50;;;6.92;83.82
12594;BME280;6362;50.208;9.182;2023-12-07T09:52:07;100354.56;;;7.94;78.80
12594;BME280;6362;50.208;9.182;2023-12-07T09:54:34;100366.50;;;8.77;72.93
12594;BME280;6362;50.208;9.182;2023-12-07T09:57:00;100360.88;;;9.58;68.78
12594;BME280;6362;50.208;9.182;2023-12-07T09:59:27;100355.84;;;10.36;63.66
12594;BME280;6362;50.208;9.182;2023-12-07T10:01:52;100354.03;;;10.97;61.24
12594;BME280;6362;50.208;9.182;2023-12-07T10:04:22;100356.50;;;11.37;57.62
12594;BME280;6362;50.208;9.182;2023-12-07T10:06:51;100357.19;;;11.76;55.68
12594;BME280;6362;50.208;9.182;2023-12-07T10:09:17;100350.97;;;12.06;54.09
12594;BME280;6362;50.208;9.182;2023-12-07T10:11:44;100365.44;;;12.47;52.59
12594;BME280;6362;50.208;9.182;2023-12-07T10:14:10;100360.06;;;12.63;51.92
12594;BME280;6362;50.208;9.182;2023-12-07T10:16:36;100358.00;;;11.92;51.14
12594;BME280;6362;50.208;9.182;2023-12-07T10:19:15;100361.84;;;11.02;53.91
12594;BME280;6362;50.208;9.182;2023-12-07T10:21:44;100359.28;;;10.83;55.04
12594;BME280;6362;50.208;9.182;2023-12-07T10:24:10;100349.63;;;11.19;54.69
12594;BME280;6362;50.208;9.182;2023-12-07T10:26:37;100332.06;;;11.64;53.58
12594;BME280;6362;50.208;9.182;2023-12-07T10:29:07;100331.75;;;12.18;53.34
12594;BME280;6362;50.208;9.182;2023-12-07T10:31:33;100332.78;;;12.93;49.27
12594;BME280;6362;50.208;9.182;2023-12-07T10:33:59;100330.56;;;12.54;50.80
12594;BME280;6362;50.208;9.182;2023-12-07T10:36:26;100319.41;;;12.38;50.17
12594;BME280;6362;50.208;9.182;2023-12-07T10:38:52;100319.75;;;12.92;48.88
12594;BME280;6362;50.208;9.182;2023-12-07T10:41:21;100298.00;;;13.64;46.00
12594;BME280;6362;50.208;9.182;2023-12-07T10:43:51;100309.91;;;13.15;47.15
12594;BME280;6362;50.208;9.182;2023-12-07T10:46:19;100301.63;;;13.55;45.94
12594;BME280;6362;50.208;9.182;2023-12-07T10:48:45;100305.53;;;12.36;47.25
12594;BME280;6362;50.208;9.182;2023-12-07T10:51:28;100304.84;;;12.14;48.81
12594;BME280;6362;50.208;9.182;2023-12-07T10:53:56;100306.63;;;12.04;49.57
12594;BME280;6362;50.208;9.182;2023-12-07T10:56:38;100300.50;;;12.13;50.52
12594;BME280;6362;50.208;9.182;2023-12-07T10:59:09;100295.06;;;12.37;49.74
12594;BME280;6362;50.208;9.182;2023-12-07T11:01:39;100302.34;;;12.92;48.09
12594;BME280;6362;50.208;9.182;2023-12-07T11:04:06;100276.50;;;13.45;44.90
12594;BME280;6362;50.208;9.182;2023-12-07T11:06:33;100289.22;;;14.23;43.31
12594;BME280;6362;50.208;9.182;2023-12-07T11:09:02;100279.47;;;14.83;42.81
12594;BME280;6362;50.208;9.182;2023-12-07T11:11:48;100273.41;;;15.64;41.31
12594;BME280;6362;50.208;9.182;2023-12-07T11:14:16;100271.09;;;15.09;41.27
12594;BME280;6362;50.208;9.182;2023-12-07T11:16:46;100262.97;;;15.63;40.34
12594;BME280;6362;50.208;9.182;2023-12-07T11:22:02;100255.69;;;15.74;39.48
12594;BME280;6362;50.208;9.182;2023-12-07T11:24:29;100263.41;;;16.17;39.21
12594;BME280;6362;50.208;9.182;2023-12-07T11:26:55;100253.56;;;16.25;39.35
12594;BME280;6362;50.208;9.182;2023-12-07T11:29:21;100247.00;;;16.42;38.67
12594;BME280;6362;50.208;9.182;2023-12-07T11:31:48;100245.28;;;17.04;36.70
12594;BME280;6362;50.208;9.182;2023-12-07T11:34:13;100249.63;;;16.07;38.64
12594;BME280;6362;50.208;9.182;2023-12-07T11:36:39;100233.06;;;16.40;38.02
12594;BME280;6362;50.208;9.182;2023-12-07T11:41:43;100222.28;;;16.83;37.47
12594;BME280;6362;50.208;9.182;2023-12-07T11:44:10;100224.34;;;17.59;35.13
12594;BME280;6362;50.208;9.182;2023-12-07T11:46:37;100205.78;;;17.07;35.60
12594;BME280;6362;50.208;9.182;2023-12-07T11:49:02;100210.88;;;17.69;34.56
12594;BME280;6362;50.208;9.182;2023-12-07T11:51:29;100200.75;;;17.29;35.51
12594;BME280;6362;50.208;9.182;2023-12-07T11:53:54;100197.97;;;17.06;35.68
12594;BME280;6362;50.208;9.182;2023-12-07T11:56:20;100207.56;;;15.76;37.83
12594;BME280;6362;50.208;9.182;2023-12-07T11:58:47;100206.84;;;15.70;38.48
12594;BME280;6362;50.208;9.182;2023-12-07T12:01:13;100191.13;;;14.91;39.66
12594;BME280;6362;50.208;9.182;2023-12-07T12:03:38;100176.47;;;14.84;40.56
12594;BME280;6362;50.208;9.182;2023-12-07T12:06:05;100169.94;;;14.60;40.88
12594;BME280;6362;50.208;9.182;2023-12-07T12:08:33;100176.34;;;14.45;40.45
12594;BME280;6362;50.208;9.182;2023-12-07T12:10:58;100182.91;;;14.67;40.39
12594;BME280;6362;50.208;9.182;2023-12-07T12:13:28;100185.44;;;14.72;39.80
12594;BME280;6362;50.208;9.182;2023-12-07T12:15:55;100171.00;;;14.94;39.67
12594;BME280;6362;50.208;9.182;2023-12-07T12:18:21;100160.44;;;15.36;38.77
12594;BME280;6362;50.208;9.182;2023-12-07T12:20:47;100158.41;;;16.50;37.17
12594;BME280;6362;50.208;9.182;2023-12-07T12:23:12;100139.03;;;17.13;36.62
12594;BME280;6362;50.208;9.182;2023-12-07T12:25:38;100140.75;;;16.86;36.55
12594;BME280;6362;50.208;9.182;2023-12-07T12:28:05;100140.00;;;17.38;36.00
12594;BME280;6362;50.208;9.182;2023-12-07T12:30:32;100144.97;;;18.01;34.66
12594;BME280;6362;50.208;9.182;2023-12-07T12:32:58;100130.25;;;18.68;34.04
12594;BME280;6362;50.208;9.182;2023-12-07T12:35:27;100126.91;;;18.63;33.87
12594;BME280;6362;50.208;9.182;2023-12-07T12:37:52;100128.69;;;17.89;35.05
12594;BME280;6362;50.208;9.182;2023-12-07T12:40:22;100126.44;;;17.79;34.45
12594;BME280;6362;50.208;9.182;2023-12-07T12:42:52;100126.25;;;18.08;34.23
12594;BME280;6362;50.208;9.182;2023-12-07T12:45:18;100124.19;;;18.65;33.65
12594;BME280;6362;50.208;9.182;2023-12-07T12:47:46;100119.75;;;18.67;33.15
12594;BME280;6362;50.208;9.182;2023-12-07T12:50:13;100111.22;;;18.60;32.83
12594;BME280;6362;50.208;9.182;2023-12-07T12:52:58;100113.88;;;18.12;34.18
12594;BME280;6362;50.208;9.182;2023-12-07T12:55:26;100112.69;;;18.91;33.29
12594;BME280;6362;50.208;9.182;2023-12-07T12:57:51;100109.47;;;18.59;33.24
12594;BME280;6362;50.208;9.182;2023-12-07T13:00:17;100112.59;;;18.94;33.06